sensor_id;sensor_type;location;lat;lon;timestamp;temperature;humidity
837;DHT22;400;53.550;9.932;2022-09-09T00:01:46;17.00;99.90
837;DHT22;400;53.550;9.932;2022-09-09T00:04:25;16.90;99.90
837;DHT22;400;53.550;9.932;2022-09-09T00:07:01;16.90;99.90
837;DHT22;400;53.550;9.932;2022-09-09T00:09:31;16.90;99.90
837;DHT22;400;53.550;9.932;2022-09-09T00:12:06;16.90;99.90
837;DHT22;400;53.550;9.932;2022-09-09T00:14:42;16.90;99.90
837;DHT22;400;53.550;9.932;2022-09-09T00:17:18;17.00;99.90
837;DHT22;400;53.550;9.932;2022-09-09T00:19:56;16.90;99.90
837;DHT22;400;53.550;9.932;2022-09-09T00:22:29;17.00;99.90
837;DHT22;400;53.550;9.932;2022-09-09T00:25:02;17.00;99.90
837;DHT22;400;53.550;9.932;2022-09-09T00:27:38;17.10;99.90
837;DHT22;400;53.550;9.932;2022-09-09T00:30:15;17.10;99.90
837;DHT22;400;53.550;9.932;2022-09-09T00:32:47;17.10;99.90
837;DHT22;400;53.550;9.932;2022-09-09T00:35:18;17.10;99.90
837;DHT22;400;53.550;9.932;2022-09-09T00:37:55;17.10;99.90
837;DHT22;400;53.550;9.932;2022-09-09T00:40:28;17.10;99.90
837;DHT22;400;53.550;9.932;2022-09-09T00:43:20;17.30;99.90
837;DHT22;400;53.550;9.932;2022-09-09T00:46:09;17.20;99.90
837;DHT22;400;53.550;9.932;2022-09-09T00:48:47;17.30;99.90
837;DHT22;400;53.550;9.932;2022-09-09T00:51:22;17.20;99.90
837;DHT22;400;53.550;9.932;2022-09-09T00:54:09;17.30;99.90
837;DHT22;400;53.550;9.932;2022-09-09T00:56:45;17.30;99.90
837;DHT22;400;53.550;9.932;2022-09-09T00:59:24;17.20;99.90
837;DHT22;400;53.550;9.932;2022-09-09T01:01:54;17.10;99.90
837;DHT22;400;53.550;9.932;2022-09-09T01:04:29;17.10;99.90
837;DHT22;400;53.550;9.932;2022-09-09T01:07:03;17.30;99.90
837;DHT22;400;53.550;9.932;2022-09-09T01:09:41;17.20;99.90
837;DHT22;400;53.550;9.932;2022-09-09T01:12:14;17.20;99.90
837;DHT22;400;53.550;9.932;2022-09-09T01:14:47;17.20;99.90
837;DHT22;400;53.550;9.932;2022-09-09T01:17:18;17.20;99.90
837;DHT22;400;53.550;9.932;2022-09-09T01:19:57;17.10;99.90
837;DHT22;400;53.550;9.932;2022-09-09T01:22:34;17.00;99.90
837;DHT22;400;53.550;9.932;2022-09-09T01:25:22;17.10;99.90
837;DHT22;400;53.550;9.932;2022-09-09T01:27:56;17.00;99.90
837;DHT22;400;53.550;9.932;2022-09-09T01:30:25;17.00;99.90
837;DHT22;400;53.550;9.932;2022-09-09T01:32:55;17.10;99.90
837;DHT22;400;53.550;9.932;2022-09-09T01:35:39;17.00;99.90
837;DHT22;400;53.550;9.932;2022-09-09T01:38:08;17.10;99.90
837;DHT22;400;53.550;9.932;2022-09-09T01:40:35;17.00;99.90
837;DHT22;400;53.550;9.932;2022-09-09T01:43:04;17.10;99.90
837;DHT22;400;53.550;9.932;2022-09-09T01:45:32;17.00;99.90
837;DHT22;400;53.550;9.932;2022-09-09T01:47:59;16.90;99.90
837;DHT22;400;53.550;9.932;2022-09-09T01:50:28;17.00;99.90
837;DHT22;400;53.550;9.932;2022-09-09T01:52:58;16.90;99.90
837;DHT22;400;53.550;9.932;2022-09-09T01:55:30;16.80;99.90
837;DHT22;400;53.550;9.932;2022-09-09T01:58:09;16.90;99.90
837;DHT22;400;53.550;9.932;2022-09-09T02:00:44;16.80;99.90
837;DHT22;400;53.550;9.932;2022-09-09T02:03:20;16.90;99.90
837;DHT22;400;53.550;9.932;2022-09-09T02:05:53;16.80;99.90
837;DHT22;400;53.550;9.932;2022-09-09T02:08:31;16.80;99.90
837;DHT22;400;53.550;9.932;2022-09-09T02:11:03;16.80;99.90
837;DHT22;400;53.550;9.932;2022-09-09T02:13:36;16.70;99.90
837;DHT22;400;53.550;9.932;2022-09-09T02:16:07;16.80;99.90
837;DHT22;400;53.550;9.932;2022-09-09T02:18:38;16.80;99.90
837;DHT22;400;53.550;9.932;2022-09-09T02:21:07;16.70;99.90
837;DHT22;400;53.550;9.932;2022-09-09T02:23:36;16.80;99.90
837;DHT22;400;53.550;9.932;2022-09-09T02:26:06;16.70;99.90
837;DHT22;400;53.550;9.932;2022-09-09T02:28:36;16.80;99.90
837;DHT22;400;53.550;9.932;2022-09-09T02:31:05;16.70;99.90
837;DHT22;400;53.550;9.932;2022-09-09T02:33:35;16.80;99.90
837;DHT22;400;53.550;9.932;2022-09-09T02:36:05;16.70;99.90
837;DHT22;400;53.550;9.932;2022-09-09T02:38:37;16.80;99.90
837;DHT22;400;53.550;9.932;2022-09-09T02:41:06;16.70;99.90
837;DHT22;400;53.550;9.932;2022-09-09T02:43:35;16.70;99.90
837;DHT22;400;53.550;9.932;2022-09-09T02:46:08;16.70;99.90
837;DHT22;400;53.550;9.932;2022-09-09T02:48:45;16.70;99.90
837;DHT22;400;53.550;9.932;2022-09-09T02:51:20;16.60;99.90
837;DHT22;400;53.550;9.932;2022-09-09T02:53:55;16.70;99.90
837;DHT22;400;53.550;9.932;2022-09-09T02:56:28;16.70;99.90
837;DHT22;400;53.550;9.932;2022-09-09T02:59:02;16.60;99.90
837;DHT22;400;53.550;9.932;2022-09-09T03:01:29;16.60;99.90
837;DHT22;400;53.550;9.932;2022-09-09T03:03:57;16.60;99.90
837;DHT22;400;53.550;9.932;2022-09-09T03:06:24;16.50;99.90
837;DHT22;400;53.550;9.932;2022-09-09T03:08:53;16.60;99.90
837;DHT22;400;53.550;9.932;2022-09-09T03:11:23;16.60;99.90
837;DHT22;400;53.550;9.932;2022-09-09T03:13:50;16.50;99.90
837;DHT22;400;53.550;9.932;2022-09-09T03:16:18;16.50;99.90
837;DHT22;400;53.550;9.932;2022-09-09T03:18:48;16.50;99.90
837;DHT22;400;53.550;9.932;2022-09-09T03:21:15;16.60;99.90
837;DHT22;400;53.550;9.932;2022-09-09T03:23:42;16.50;99.90
837;DHT22;400;53.550;9.932;2022-09-09T03:26:13;16.50;99.90
837;DHT22;400;53.550;9.932;2022-09-09T03:28:41;16.50;99.90
837;DHT22;400;53.550;9.932;2022-09-09T03:31:08;16.50;99.90
837;DHT22;400;53.550;9.932;2022-09-09T03:33:39;16.60;99.90
837;DHT22;400;53.550;9.932;2022-09-09T03:36:07;16.50;99.90
837;DHT22;400;53.550;9.932;2022-09-09T03:38:36;16.40;99.90
837;DHT22;400;53.550;9.932;2022-09-09T03:41:04;16.40;99.90
837;DHT22;400;53.550;9.932;2022-09-09T03:43:33;16.50;99.90
837;DHT22;400;53.550;9.932;2022-09-09T03:46:00;16.40;99.90
837;DHT22;400;53.550;9.932;2022-09-09T03:48:27;16.40;99.90
837;DHT22;400;53.550;9.932;2022-09-09T03:50:56;16.40;99.90
837;DHT22;400;53.550;9.932;2022-09-09T03:53:26;16.40;99.90
837;DHT22;400;53.550;9.932;2022-09-09T03:55:55;16.30;99.90
837;DHT22;400;53.550;9.932;2022-09-09T03:58:26;16.30;99.90
837;DHT22;400;53.550;9.932;2022-09-09T04:00:54;16.40;99.90
837;DHT22;400;53.550;9.932;2022-09-09T04:03:22;16.30;99.90
837;DHT22;400;53.550;9.932;2022-09-09T04:05:50;16.20;99.90
837;DHT22;400;53.550;9.932;2022-09-09T04:08:22;16.20;99.90
837;DHT22;400;53.550;9.932;2022-09-09T04:10:51;16.20;99.90
837;DHT22;400;53.550;9.932;2022-09-09T04:13:23;16.10;99.90
837;DHT22;400;53.550;9.932;2022-09-09T04:15:51;16.20;99.90
837;DHT22;400;53.550;9.932;2022-09-09T04:18:19;16.10;99.90
837;DHT22;400;53.550;9.932;2022-09-09T04:20:48;16.30;99.90
837;DHT22;400;53.550;9.932;2022-09-09T04:23:16;16.20;99.90
837;DHT22;400;53.550;9.932;2022-09-09T04:25:46;16.20;99.90
837;DHT22;400;53.550;9.932;2022-09-09T04:28:13;16.20;99.90
837;DHT22;400;53.550;9.932;2022-09-09T04:30:42;16.10;99.90
837;DHT22;400;53.550;9.932;2022-09-09T04:33:14;16.00;99.90
837;DHT22;400;53.550;9.932;2022-09-09T04:35:46;16.10;99.90
837;DHT22;400;53.550;9.932;2022-09-09T04:38:23;16.00;99.90
837;DHT22;400;53.550;9.932;2022-09-09T04:40:54;16.00;99.90
837;DHT22;400;53.550;9.932;2022-09-09T04:43:22;16.00;99.90
837;DHT22;400;53.550;9.932;2022-09-09T04:45:51;16.00;99.90
837;DHT22;400;53.550;9.932;2022-09-09T04:48:19;16.10;99.90
837;DHT22;400;53.550;9.932;2022-09-09T04:50:56;16.10;99.90
837;DHT22;400;53.550;9.932;2022-09-09T04:53:28;16.00;99.90
837;DHT22;400;53.550;9.932;2022-09-09T04:56:04;16.00;99.90
837;DHT22;400;53.550;9.932;2022-09-09T04:58:34;16.10;99.90
837;DHT22;400;53.550;9.932;2022-09-09T05:01:06;16.00;99.90
837;DHT22;400;53.550;9.932;2022-09-09T05:03:34;16.10;99.90
837;DHT22;400;53.550;9.932;2022-09-09T05:06:08;16.10;99.90
837;DHT22;400;53.550;9.932;2022-09-09T05:08:37;16.20;99.90
837;DHT22;400;53.550;9.932;2022-09-09T05:11:14;16.20;99.90
837;DHT22;400;53.550;9.932;2022-09-09T05:13:50;16.10;99.90
837;DHT22;400;53.550;9.932;2022-09-09T05:16:20;16.20;99.90
837;DHT22;400;53.550;9.932;2022-09-09T05:18:49;16.20;99.90
837;DHT22;400;53.550;9.932;2022-09-09T05:21:19;16.20;99.90
837;DHT22;400;53.550;9.932;2022-09-09T05:23:49;16.30;99.90
837;DHT22;400;53.550;9.932;2022-09-09T05:26:31;16.20;99.90
837;DHT22;400;53.550;9.932;2022-09-09T05:29:02;16.10;99.90
837;DHT22;400;53.550;9.932;2022-09-09T05:31:30;16.20;99.90
837;DHT22;400;53.550;9.932;2022-09-09T05:33:58;16.20;99.90
837;DHT22;400;53.550;9.932;2022-09-09T05:36:25;16.20;99.90
837;DHT22;400;53.550;9.932;2022-09-09T05:38:52;16.20;99.90
837;DHT22;400;53.550;9.932;2022-09-09T05:41:22;16.30;99.90
837;DHT22;400;53.550;9.932;2022-09-09T05:43:52;16.40;99.90
837;DHT22;400;53.550;9.932;2022-09-09T05:46:28;16.40;99.90
837;DHT22;400;53.550;9.932;2022-09-09T05:49:03;16.40;99.90
837;DHT22;400;53.550;9.932;2022-09-09T05:51:38;16.30;99.90
837;DHT22;400;53.550;9.932;2022-09-09T05:54:10;16.40;99.90
837;DHT22;400;53.550;9.932;2022-09-09T05:56:46;16.40;99.90
837;DHT22;400;53.550;9.932;2022-09-09T05:59:18;16.60;99.90
837;DHT22;400;53.550;9.932;2022-09-09T06:01:45;16.50;99.90
837;DHT22;400;53.550;9.932;2022-09-09T06:04:16;16.70;99.90
837;DHT22;400;53.550;9.932;2022-09-09T06:06:43;16.70;99.90
837;DHT22;400;53.550;9.932;2022-09-09T06:09:10;16.70;99.90
837;DHT22;400;53.550;9.932;2022-09-09T06:11:38;16.80;99.90
837;DHT22;400;53.550;9.932;2022-09-09T06:14:06;16.80;99.90
837;DHT22;400;53.550;9.932;2022-09-09T06:16:35;16.80;99.90
837;DHT22;400;53.550;9.932;2022-09-09T06:19:04;16.80;99.90
837;DHT22;400;53.550;9.932;2022-09-09T06:21:33;16.80;99.90
837;DHT22;400;53.550;9.932;2022-09-09T06:24:11;16.90;99.90
837;DHT22;400;53.550;9.932;2022-09-09T06:26:45;16.90;99.90
837;DHT22;400;53.550;9.932;2022-09-09T06:29:16;16.90;99.90
837;DHT22;400;53.550;9.932;2022-09-09T06:31:46;17.00;99.90
837;DHT22;400;53.550;9.932;2022-09-09T06:34:13;17.00;99.90
837;DHT22;400;53.550;9.932;2022-09-09T06:36:40;16.90;99.90
837;DHT22;400;53.550;9.932;2022-09-09T06:39:10;17.00;99.90
837;DHT22;400;53.550;9.932;2022-09-09T06:41:37;17.10;99.90
837;DHT22;400;53.550;9.932;2022-09-09T06:44:07;17.20;99.90
837;DHT22;400;53.550;9.932;2022-09-09T06:46:42;17.20;99.90
837;DHT22;400;53.550;9.932;2022-09-09T06:49:22;17.30;99.90
837;DHT22;400;53.550;9.932;2022-09-09T06:51:56;17.30;99.90
837;DHT22;400;53.550;9.932;2022-09-09T06:54:25;17.40;99.90
837;DHT22;400;53.550;9.932;2022-09-09T06:56:54;17.40;99.90
837;DHT22;400;53.550;9.932;2022-09-09T06:59:23;17.40;99.90
837;DHT22;400;53.550;9.932;2022-09-09T07:02:00;17.60;99.90
837;DHT22;400;53.550;9.932;2022-09-09T07:04:31;17.60;99.90
837;DHT22;400;53.550;9.932;2022-09-09T07:07:01;17.70;99.90
837;DHT22;400;53.550;9.932;2022-09-09T07:09:33;17.70;99.90
837;DHT22;400;53.550;9.932;2022-09-09T07:12:09;17.80;99.90
837;DHT22;400;53.550;9.932;2022-09-09T07:14:36;17.80;99.90
837;DHT22;400;53.550;9.932;2022-09-09T07:17:04;17.90;99.90
837;DHT22;400;53.550;9.932;2022-09-09T07:19:32;18.00;99.90
837;DHT22;400;53.550;9.932;2022-09-09T07:21:59;17.90;99.90
837;DHT22;400;53.550;9.932;2022-09-09T07:24:28;18.00;99.90
837;DHT22;400;53.550;9.932;2022-09-09T07:26:57;18.00;99.90
837;DHT22;400;53.550;9.932;2022-09-09T07:29:29;18.00;99.90
837;DHT22;400;53.550;9.932;2022-09-09T07:31:57;18.10;99.90
837;DHT22;400;53.550;9.932;2022-09-09T07:34:33;18.10;99.90
837;DHT22;400;53.550;9.932;2022-09-09T07:37:02;18.00;99.90
837;DHT22;400;53.550;9.932;2022-09-09T07:39:35;18.10;99.90
837;DHT22;400;53.550;9.932;2022-09-09T07:42:03;18.10;99.90
837;DHT22;400;53.550;9.932;2022-09-09T07:44:30;18.10;99.90
837;DHT22;400;53.550;9.932;2022-09-09T07:47:02;18.10;99.90
837;DHT22;400;53.550;9.932;2022-09-09T07:49:34;18.10;99.90
837;DHT22;400;53.550;9.932;2022-09-09T07:52:01;18.20;99.90
837;DHT22;400;53.550;9.932;2022-09-09T07:54:28;18.20;99.90
837;DHT22;400;53.550;9.932;2022-09-09T07:56:57;18.20;99.90
837;DHT22;400;53.550;9.932;2022-09-09T07:59:27;18.30;99.90
837;DHT22;400;53.550;9.932;2022-09-09T08:01:57;18.30;99.90
837;DHT22;400;53.550;9.932;2022-09-09T08:04:25;18.30;99.90
837;DHT22;400;53.550;9.932;2022-09-09T08:06:57;18.40;99.90
837;DHT22;400;53.550;9.932;2022-09-09T08:09:26;18.40;99.90
837;DHT22;400;53.550;9.932;2022-09-09T08:11:55;18.50;99.90
837;DHT22;400;53.550;9.932;2022-09-09T08:14:23;18.50;99.90
837;DHT22;400;53.550;9.932;2022-09-09T08:16:52;18.50;99.90
837;DHT22;400;53.550;9.932;2022-09-09T08:19:24;18.60;99.90
837;DHT22;400;53.550;9.932;2022-09-09T08:22:04;18.60;99.90
837;DHT22;400;53.550;9.932;2022-09-09T08:24:33;18.70;99.90
837;DHT22;400;53.550;9.932;2022-09-09T08:27:00;18.80;99.90
837;DHT22;400;53.550;9.932;2022-09-09T08:29:30;18.90;99.90
837;DHT22;400;53.550;9.932;2022-09-09T08:32:01;19.00;99.90
837;DHT22;400;53.550;9.932;2022-09-09T08:34:32;19.00;99.90
837;DHT22;400;53.550;9.932;2022-09-09T08:37:01;19.10;99.90
837;DHT22;400;53.550;9.932;2022-09-09T08:39:27;19.10;99.90
837;DHT22;400;53.550;9.932;2022-09-09T08:42:25;19.20;99.90
837;DHT22;400;53.550;9.932;2022-09-09T08:45:23;19.10;99.90
837;DHT22;400;53.550;9.932;2022-09-09T08:48:05;18.90;99.90
837;DHT22;400;53.550;9.932;2022-09-09T08:50:38;19.00;99.90
837;DHT22;400;53.550;9.932;2022-09-09T08:53:16;19.10;99.90
837;DHT22;400;53.550;9.932;2022-09-09T08:55:47;19.20;99.90
837;DHT22;400;53.550;9.932;2022-09-09T08:58:17;19.30;99.90
837;DHT22;400;53.550;9.932;2022-09-09T09:03:41;19.30;99.90
837;DHT22;400;53.550;9.932;2022-09-09T09:06:25;19.40;99.90
837;DHT22;400;53.550;9.932;2022-09-09T09:09:01;19.50;99.90
837;DHT22;400;53.550;9.932;2022-09-09T09:11:35;19.50;99.90
837;DHT22;400;53.550;9.932;2022-09-09T09:14:07;19.70;99.90
837;DHT22;400;53.550;9.932;2022-09-09T09:16:44;19.80;99.90
837;DHT22;400;53.550;9.932;2022-09-09T09:19:16;20.00;99.90
837;DHT22;400;53.550;9.932;2022-09-09T09:21:45;20.10;99.90
837;DHT22;400;53.550;9.932;2022-09-09T09:24:19;20.20;99.90
837;DHT22;400;53.550;9.932;2022-09-09T09:26:47;20.30;99.90
837;DHT22;400;53.550;9.932;2022-09-09T09:29:16;20.30;99.90
837;DHT22;400;53.550;9.932;2022-09-09T09:31:46;20.40;99.90
837;DHT22;400;53.550;9.932;2022-09-09T09:34:14;20.50;99.90
837;DHT22;400;53.550;9.932;2022-09-09T09:36:44;20.50;99.90
837;DHT22;400;53.550;9.932;2022-09-09T09:39:25;20.60;99.90
837;DHT22;400;53.550;9.932;2022-09-09T09:41:54;20.70;99.90
837;DHT22;400;53.550;9.932;2022-09-09T09:44:27;20.70;99.90
837;DHT22;400;53.550;9.932;2022-09-09T09:47:08;20.70;99.90
837;DHT22;400;53.550;9.932;2022-09-09T09:49:35;20.80;99.90
837;DHT22;400;53.550;9.932;2022-09-09T09:52:05;20.80;99.90
837;DHT22;400;53.550;9.932;2022-09-09T09:54:42;20.80;99.90
837;DHT22;400;53.550;9.932;2022-09-09T09:57:13;20.80;99.90
837;DHT22;400;53.550;9.932;2022-09-09T09:59:43;20.80;99.90
837;DHT22;400;53.550;9.932;2022-09-09T10:02:19;20.90;99.90
837;DHT22;400;53.550;9.932;2022-09-09T10:04:46;21.00;99.90
837;DHT22;400;53.550;9.932;2022-09-09T10:07:20;21.00;99.90
837;DHT22;400;53.550;9.932;2022-09-09T10:09:55;21.00;99.90
837;DHT22;400;53.550;9.932;2022-09-09T10:12:34;21.00;99.90
837;DHT22;400;53.550;9.932;2022-09-09T10:15:16;21.10;99.90
837;DHT22;400;53.550;9.932;2022-09-09T10:17:55;21.20;99.90
837;DHT22;400;53.550;9.932;2022-09-09T10:20:32;21.20;99.90
837;DHT22;400;53.550;9.932;2022-09-09T10:23:11;21.20;99.90
837;DHT22;400;53.550;9.932;2022-09-09T10:26:04;21.20;99.90
837;DHT22;400;53.550;9.932;2022-09-09T10:32:09;21.10;99.90
837;DHT22;400;53.550;9.932;2022-09-09T10:34:57;21.10;99.90
837;DHT22;400;53.550;9.932;2022-09-09T10:37:46;21.20;99.90
837;DHT22;400;53.550;9.932;2022-09-09T10:40:28;21.10;99.90
837;DHT22;400;53.550;9.932;2022-09-09T10:43:11;21.20;99.90
837;DHT22;400;53.550;9.932;2022-09-09T10:45:50;21.20;99.90
837;DHT22;400;53.550;9.932;2022-09-09T10:48:35;21.20;99.90
837;DHT22;400;53.550;9.932;2022-09-09T10:51:20;21.10;99.90
837;DHT22;400;53.550;9.932;2022-09-09T10:54:09;21.20;99.90
837;DHT22;400;53.550;9.932;2022-09-09T10:56:40;21.30;99.90
837;DHT22;400;53.550;9.932;2022-09-09T10:59:13;21.30;99.90
837;DHT22;400;53.550;9.932;2022-09-09T11:01:46;21.40;99.90
837;DHT22;400;53.550;9.932;2022-09-09T11:04:17;21.40;99.90
837;DHT22;400;53.550;9.932;2022-09-09T11:06:50;21.40;99.90
837;DHT22;400;53.550;9.932;2022-09-09T11:09:22;21.40;99.90
837;DHT22;400;53.550;9.932;2022-09-09T11:11:53;21.40;99.90
837;DHT22;400;53.550;9.932;2022-09-09T11:14:26;21.50;99.90
837;DHT22;400;53.550;9.932;2022-09-09T11:16:58;21.50;99.90
837;DHT22;400;53.550;9.932;2022-09-09T11:19:33;21.40;99.90
837;DHT22;400;53.550;9.932;2022-09-09T11:22:07;21.40;99.90
837;DHT22;400;53.550;9.932;2022-09-09T11:24:43;21.50;99.90
837;DHT22;400;53.550;9.932;2022-09-09T11:27:24;21.70;99.90
837;DHT22;400;53.550;9.932;2022-09-09T11:30:16;21.80;99.90
837;DHT22;400;53.550;9.932;2022-09-09T11:33:06;21.90;99.90
837;DHT22;400;53.550;9.932;2022-09-09T11:35:44;22.00;99.90
837;DHT22;400;53.550;9.932;2022-09-09T11:38:19;22.10;99.90
837;DHT22;400;53.550;9.932;2022-09-09T11:40:56;22.20;99.90
837;DHT22;400;53.550;9.932;2022-09-09T11:43:31;22.20;99.90
837;DHT22;400;53.550;9.932;2022-09-09T11:46:09;22.20;99.90
837;DHT22;400;53.550;9.932;2022-09-09T11:48:42;22.20;99.90
837;DHT22;400;53.550;9.932;2022-09-09T11:51:24;22.20;99.90
837;DHT22;400;53.550;9.932;2022-09-09T11:53:53;22.30;99.90
837;DHT22;400;53.550;9.932;2022-09-09T11:56:29;22.30;99.90
837;DHT22;400;53.550;9.932;2022-09-09T11:59:00;22.30;99.90
837;DHT22;400;53.550;9.932;2022-09-09T12:01:34;22.20;99.90
837;DHT22;400;53.550;9.932;2022-09-09T12:04:16;22.20;99.90
837;DHT22;400;53.550;9.932;2022-09-09T12:06:46;22.20;99.90
837;DHT22;400;53.550;9.932;2022-09-09T12:09:22;22.20;99.90
837;DHT22;400;53.550;9.932;2022-09-09T12:11:50;22.20;99.90
837;DHT22;400;53.550;9.932;2022-09-09T12:14:23;22.20;99.90
837;DHT22;400;53.550;9.932;2022-09-09T12:17:22;22.20;99.90
837;DHT22;400;53.550;9.932;2022-09-09T12:20:01;22.20;99.90
837;DHT22;400;53.550;9.932;2022-09-09T12:22:35;22.20;99.90
837;DHT22;400;53.550;9.932;2022-09-09T12:25:14;22.20;99.90
837;DHT22;400;53.550;9.932;2022-09-09T12:27:46;22.20;99.90
837;DHT22;400;53.550;9.932;2022-09-09T12:30:16;22.20;99.90
837;DHT22;400;53.550;9.932;2022-09-09T12:32:46;22.30;99.90
837;DHT22;400;53.550;9.932;2022-09-09T12:35:24;22.30;99.90
837;DHT22;400;53.550;9.932;2022-09-09T12:38:03;22.20;99.90
837;DHT22;400;53.550;9.932;2022-09-09T12:40:33;22.20;99.90
837;DHT22;400;53.550;9.932;2022-09-09T12:43:01;22.20;99.90
837;DHT22;400;53.550;9.932;2022-09-09T12:45:30;22.30;99.90
837;DHT22;400;53.550;9.932;2022-09-09T12:48:01;22.20;99.90
837;DHT22;400;53.550;9.932;2022-09-09T12:50:31;22.30;99.90
837;DHT22;400;53.550;9.932;2022-09-09T12:53:03;22.20;99.90
837;DHT22;400;53.550;9.932;2022-09-09T12:55:38;22.30;99.90
837;DHT22;400;53.550;9.932;2022-09-09T12:58:14;22.20;99.90
837;DHT22;400;53.550;9.932;2022-09-09T13:00:49;22.20;99.90
837;DHT22;400;53.550;9.932;2022-09-09T13:03:20;22.10;99.90
837;DHT22;400;53.550;9.932;2022-09-09T13:05:50;22.00;99.90
837;DHT22;400;53.550;9.932;2022-09-09T13:08:19;21.90;99.90
837;DHT22;400;53.550;9.932;2022-09-09T13:10:53;21.80;99.90
837;DHT22;400;53.550;9.932;2022-09-09T13:13:26;21.60;99.90
837;DHT22;400;53.550;9.932;2022-09-09T13:15:57;21.50;99.90
837;DHT22;400;53.550;9.932;2022-09-09T13:18:30;21.50;99.90
837;DHT22;400;53.550;9.932;2022-09-09T13:20:58;21.40;99.90
837;DHT22;400;53.550;9.932;2022-09-09T13:23:28;21.30;99.90
837;DHT22;400;53.550;9.932;2022-09-09T13:26:00;21.10;99.90
837;DHT22;400;53.550;9.932;2022-09-09T13:28:30;21.10;99.90
837;DHT22;400;53.550;9.932;2022-09-09T13:30:59;21.00;99.90
837;DHT22;400;53.550;9.932;2022-09-09T13:33:33;20.90;99.90
837;DHT22;400;53.550;9.932;2022-09-09T13:36:05;20.80;99.90
837;DHT22;400;53.550;9.932;2022-09-09T13:38:52;20.70;99.90
837;DHT22;400;53.550;9.932;2022-09-09T13:41:28;20.70;99.90
837;DHT22;400;53.550;9.932;2022-09-09T13:43:56;20.70;99.90
837;DHT22;400;53.550;9.932;2022-09-09T13:46:36;20.70;99.90
837;DHT22;400;53.550;9.932;2022-09-09T13:49:21;20.70;99.90
837;DHT22;400;53.550;9.932;2022-09-09T13:51:49;20.70;99.90
837;DHT22;400;53.550;9.932;2022-09-09T13:54:20;20.70;99.90
837;DHT22;400;53.550;9.932;2022-09-09T13:56:52;20.60;99.90
837;DHT22;400;53.550;9.932;2022-09-09T13:59:26;20.60;99.90
837;DHT22;400;53.550;9.932;2022-09-09T14:02:00;20.60;99.90
837;DHT22;400;53.550;9.932;2022-09-09T14:04:30;20.60;99.90
837;DHT22;400;53.550;9.932;2022-09-09T14:07:03;20.60;99.90
837;DHT22;400;53.550;9.932;2022-09-09T14:09:33;20.60;99.90
837;DHT22;400;53.550;9.932;2022-09-09T14:12:08;20.60;99.90
837;DHT22;400;53.550;9.932;2022-09-09T14:14:37;20.60;99.90
837;DHT22;400;53.550;9.932;2022-09-09T14:17:05;20.60;99.90
837;DHT22;400;53.550;9.932;2022-09-09T14:19:35;20.60;99.90
837;DHT22;400;53.550;9.932;2022-09-09T14:22:04;20.50;99.90
837;DHT22;400;53.550;9.932;2022-09-09T14:24:36;20.50;99.90
837;DHT22;400;53.550;9.932;2022-09-09T14:27:06;20.50;99.90
837;DHT22;400;53.550;9.932;2022-09-09T14:29:37;20.40;99.90
837;DHT22;400;53.550;9.932;2022-09-09T14:32:10;20.30;99.90
837;DHT22;400;53.550;9.932;2022-09-09T14:34:41;20.30;99.90
837;DHT22;400;53.550;9.932;2022-09-09T14:37:11;20.20;99.90
837;DHT22;400;53.550;9.932;2022-09-09T14:39:40;20.20;99.90
837;DHT22;400;53.550;9.932;2022-09-09T14:42:14;20.20;99.90
837;DHT22;400;53.550;9.932;2022-09-09T14:44:48;20.20;99.90
837;DHT22;400;53.550;9.932;2022-09-09T14:47:16;20.10;99.90
837;DHT22;400;53.550;9.932;2022-09-09T14:49:49;20.10;99.90
837;DHT22;400;53.550;9.932;2022-09-09T14:52:20;20.10;99.90
837;DHT22;400;53.550;9.932;2022-09-09T14:54:57;20.10;99.90
837;DHT22;400;53.550;9.932;2022-09-09T14:57:31;20.10;99.90
837;DHT22;400;53.550;9.932;2022-09-09T15:00:09;20.20;99.90
837;DHT22;400;53.550;9.932;2022-09-09T15:02:36;20.20;99.90
837;DHT22;400;53.550;9.932;2022-09-09T15:05:05;20.20;99.90
837;DHT22;400;53.550;9.932;2022-09-09T15:07:33;20.20;99.90
837;DHT22;400;53.550;9.932;2022-09-09T15:10:00;20.20;99.90
837;DHT22;400;53.550;9.932;2022-09-09T15:12:28;20.20;99.90
837;DHT22;400;53.550;9.932;2022-09-09T15:14:55;20.20;99.90
837;DHT22;400;53.550;9.932;2022-09-09T15:17:23;20.20;99.90
837;DHT22;400;53.550;9.932;2022-09-09T15:19:53;20.10;99.90
837;DHT22;400;53.550;9.932;2022-09-09T15:22:23;20.10;99.90
837;DHT22;400;53.550;9.932;2022-09-09T15:24:52;20.10;99.90
837;DHT22;400;53.550;9.932;2022-09-09T15:27:20;20.10;99.90
837;DHT22;400;53.550;9.932;2022-09-09T15:29:48;20.20;99.90
837;DHT22;400;53.550;9.932;2022-09-09T15:32:16;20.20;99.90
837;DHT22;400;53.550;9.932;2022-09-09T15:34:43;20.10;99.90
837;DHT22;400;53.550;9.932;2022-09-09T15:37:12;20.20;99.90
837;DHT22;400;53.550;9.932;2022-09-09T15:39:45;20.30;99.90
837;DHT22;400;53.550;9.932;2022-09-09T15:42:16;20.30;99.90
837;DHT22;400;53.550;9.932;2022-09-09T15:44:46;20.30;99.90
837;DHT22;400;53.550;9.932;2022-09-09T15:47:14;20.30;99.90
837;DHT22;400;53.550;9.932;2022-09-09T15:49:41;20.30;99.90
837;DHT22;400;53.550;9.932;2022-09-09T15:52:10;20.20;99.90
837;DHT22;400;53.550;9.932;2022-09-09T15:54:37;20.30;99.90
837;DHT22;400;53.550;9.932;2022-09-09T15:57:10;20.30;99.90
837;DHT22;400;53.550;9.932;2022-09-09T15:59:40;20.30;99.90
837;DHT22;400;53.550;9.932;2022-09-09T16:02:06;20.50;99.90
837;DHT22;400;53.550;9.932;2022-09-09T16:04:33;20.50;99.90
837;DHT22;400;53.550;9.932;2022-09-09T16:07:05;20.60;99.90
837;DHT22;400;53.550;9.932;2022-09-09T16:09:33;20.70;99.90
837;DHT22;400;53.550;9.932;2022-09-09T16:12:02;20.70;99.90
837;DHT22;400;53.550;9.932;2022-09-09T16:14:33;20.70;99.90
837;DHT22;400;53.550;9.932;2022-09-09T16:17:03;20.70;99.90
837;DHT22;400;53.550;9.932;2022-09-09T16:19:33;20.70;99.90
837;DHT22;400;53.550;9.932;2022-09-09T16:22:00;20.80;99.90
837;DHT22;400;53.550;9.932;2022-09-09T16:24:31;20.80;99.90
837;DHT22;400;53.550;9.932;2022-09-09T16:27:01;20.90;99.90
837;DHT22;400;53.550;9.932;2022-09-09T16:29:36;20.90;99.90
837;DHT22;400;53.550;9.932;2022-09-09T16:32:06;20.80;99.90
837;DHT22;400;53.550;9.932;2022-09-09T16:34:39;20.90;99.90
837;DHT22;400;53.550;9.932;2022-09-09T16:37:09;20.80;99.90
837;DHT22;400;53.550;9.932;2022-09-09T16:39:39;20.70;99.90
837;DHT22;400;53.550;9.932;2022-09-09T16:42:06;20.80;99.90
837;DHT22;400;53.550;9.932;2022-09-09T16:44:37;20.70;99.90
837;DHT22;400;53.550;9.932;2022-09-09T16:47:08;20.70;99.90
837;DHT22;400;53.550;9.932;2022-09-09T16:49:41;20.70;99.90
837;DHT22;400;53.550;9.932;2022-09-09T16:52:11;20.70;99.90
837;DHT22;400;53.550;9.932;2022-09-09T16:54:38;20.60;99.90
837;DHT22;400;53.550;9.932;2022-09-09T16:57:04;20.60;99.90
837;DHT22;400;53.550;9.932;2022-09-09T16:59:35;20.60;99.90
837;DHT22;400;53.550;9.932;2022-09-09T17:02:09;20.50;99.90
837;DHT22;400;53.550;9.932;2022-09-09T17:04:40;20.50;99.90
837;DHT22;400;53.550;9.932;2022-09-09T17:07:10;20.60;99.90
837;DHT22;400;53.550;9.932;2022-09-09T17:09:38;20.50;99.90
837;DHT22;400;53.550;9.932;2022-09-09T17:12:12;20.50;99.90
837;DHT22;400;53.550;9.932;2022-09-09T17:14:43;20.40;99.90